sensor_id;sensor_type;location;lat;lon;timestamp;P1;durP1;ratioP1;P2;durP2;ratioP2
69822;SDS011;57119;52.516;13.508;2022-07-25T00:00:57;4.33;;;1.80;;
69822;SDS011;57119;52.516;13.508;2022-07-25T00:03:22;4.78;;;2.00;;
69822;SDS011;57119;52.516;13.508;2022-07-25T00:05:48;4.53;;;2.00;;
69822;SDS011;57119;52.516;13.508;2022-07-25T00:08:13;4.55;;;1.95;;
69822;SDS011;57119;52.516;13.508;2022-07-25T00:10:38;4.80;;;2.00;;
69822;SDS011;57119;52.516;13.508;2022-07-25T00:13:07;4.35;;;2.00;;
69822;SDS011;57119;52.516;13.508;2022-07-25T00:15:32;4.87;;;2.17;;
69822;SDS011;57119;52.516;13.508;2022-07-25T00:17:57;4.73;;;2.30;;
69822;SDS011;57119;52.516;13.508;2022-07-25T00:20:23;5.07;;;2.23;;
69822;SDS011;57119;52.516;13.508;2022-07-25T00:22:48;5.15;;;2.38;;
69822;SDS011;57119;52.516;13.508;2022-07-25T00:25:14;6.10;;;2.10;;
69822;SDS011;57119;52.516;13.508;2022-07-25T00:27:39;5.33;;;2.37;;
69822;SDS011;57119;52.516;13.508;2022-07-25T00:30:22;4.38;;;2.08;;
69822;SDS011;57119;52.516;13.508;2022-07-25T00:32:48;4.77;;;2.53;;
69822;SDS011;57119;52.516;13.508;2022-07-25T00:35:16;5.50;;;2.70;;
69822;SDS011;57119;52.516;13.508;2022-07-25T00:37:41;4.80;;;2.20;;
69822;SDS011;57119;52.516;13.508;2022-07-25T00:40:07;4.87;;;1.90;;
69822;SDS011;57119;52.516;13.508;2022-07-25T00:42:33;4.93;;;2.00;;
69822;SDS011;57119;52.516;13.508;2022-07-25T00:44:59;4.30;;;2.00;;
69822;SDS011;57119;52.516;13.508;2022-07-25T00:47:24;3.90;;;1.97;;
69822;SDS011;57119;52.516;13.508;2022-07-25T00:49:50;4.75;;;2.10;;
69822;SDS011;57119;52.516;13.508;2022-07-25T00:52:15;5.43;;;2.13;;
69822;SDS011;57119;52.516;13.508;2022-07-25T00:54:40;5.27;;;2.70;;
69822;SDS011;57119;52.516;13.508;2022-07-25T00:57:06;5.32;;;2.25;;
69822;SDS011;57119;52.516;13.508;2022-07-25T00:59:32;4.80;;;2.40;;
69822;SDS011;57119;52.516;13.508;2022-07-25T01:01:57;5.10;;;1.90;;
69822;SDS011;57119;52.516;13.508;2022-07-25T01:04:23;4.20;;;1.90;;
69822;SDS011;57119;52.516;13.508;2022-07-25T01:06:48;4.70;;;2.03;;
69822;SDS011;57119;52.516;13.508;2022-07-25T01:09:14;4.50;;;1.87;;
69822;SDS011;57119;52.516;13.508;2022-07-25T01:11:40;4.03;;;1.53;;
69822;SDS011;57119;52.516;13.508;2022-07-25T01:14:09;4.90;;;2.05;;
69822;SDS011;57119;52.516;13.508;2022-07-25T01:16:34;4.53;;;2.17;;
69822;SDS011;57119;52.516;13.508;2022-07-25T01:19:00;4.88;;;2.10;;
69822;SDS011;57119;52.516;13.508;2022-07-25T01:21:28;5.13;;;2.15;;
69822;SDS011;57119;52.516;13.508;2022-07-25T01:23:57;4.60;;;2.10;;
69822;SDS011;57119;52.516;13.508;2022-07-25T01:26:22;6.18;;;2.28;;
69822;SDS011;57119;52.516;13.508;2022-07-25T01:28:47;4.90;;;2.30;;
69822;SDS011;57119;52.516;13.508;2022-07-25T01:31:13;6.23;;;2.30;;
69822;SDS011;57119;52.516;13.508;2022-07-25T01:33:38;4.50;;;2.20;;
69822;SDS011;57119;52.516;13.508;2022-07-25T01:36:04;5.63;;;2.10;;
69822;SDS011;57119;52.516;13.508;2022-07-25T01:38:29;5.72;;;2.40;;
69822;SDS011;57119;52.516;13.508;2022-07-25T01:40:55;6.17;;;2.10;;
69822;SDS011;57119;52.516;13.508;2022-07-25T01:43:20;4.87;;;2.10;;
69822;SDS011;57119;52.516;13.508;2022-07-25T01:45:45;5.40;;;2.38;;
69822;SDS011;57119;52.516;13.508;2022-07-25T01:48:11;5.10;;;2.40;;
69822;SDS011;57119;52.516;13.508;2022-07-25T01:50:36;4.73;;;2.17;;
69822;SDS011;57119;52.516;13.508;2022-07-25T01:53:02;5.10;;;2.47;;
69822;SDS011;57119;52.516;13.508;2022-07-25T01:55:28;4.85;;;2.33;;
69822;SDS011;57119;52.516;13.508;2022-07-25T01:57:53;4.53;;;2.17;;
69822;SDS011;57119;52.516;13.508;2022-07-25T02:00:18;5.17;;;2.20;;
69822;SDS011;57119;52.516;13.508;2022-07-25T02:02:44;4.80;;;2.20;;
69822;SDS011;57119;52.516;13.508;2022-07-25T02:05:10;5.00;;;2.17;;
69822;SDS011;57119;52.516;13.508;2022-07-25T02:07:37;4.80;;;2.08;;
69822;SDS011;57119;52.516;13.508;2022-07-25T02:10:03;4.90;;;2.10;;
69822;SDS011;57119;52.516;13.508;2022-07-25T02:12:30;4.25;;;1.75;;
69822;SDS011;57119;52.516;13.508;2022-07-25T02:14:55;5.03;;;2.20;;
69822;SDS011;57119;52.516;13.508;2022-07-25T02:17:20;4.33;;;2.03;;
69822;SDS011;57119;52.516;13.508;2022-07-25T02:19:46;5.23;;;2.33;;
69822;SDS011;57119;52.516;13.508;2022-07-25T02:22:11;5.23;;;2.37;;
69822;SDS011;57119;52.516;13.508;2022-07-25T02:24:37;5.17;;;2.20;;
69822;SDS011;57119;52.516;13.508;2022-07-25T02:27:03;4.73;;;2.17;;
69822;SDS011;57119;52.516;13.508;2022-07-25T02:29:29;6.85;;;2.33;;
69822;SDS011;57119;52.516;13.508;2022-07-25T02:31:56;4.43;;;1.88;;
69822;SDS011;57119;52.516;13.508;2022-07-25T02:34:21;4.87;;;2.60;;
69822;SDS011;57119;52.516;13.508;2022-07-25T02:36:47;5.47;;;2.70;;
69822;SDS011;57119;52.516;13.508;2022-07-25T02:39:12;6.90;;;2.80;;
69822;SDS011;57119;52.516;13.508;2022-07-25T02:41:38;5.43;;;2.30;;
69822;SDS011;57119;52.516;13.508;2022-07-25T02:44:03;6.05;;;2.38;;
69822;SDS011;57119;52.516;13.508;2022-07-25T02:46:30;5.07;;;2.50;;
69822;SDS011;57119;52.516;13.508;2022-07-25T02:48:55;4.82;;;2.17;;
69822;SDS011;57119;52.516;13.508;2022-07-25T02:51:20;5.27;;;2.37;;
69822;SDS011;57119;52.516;13.508;2022-07-25T02:53:46;4.80;;;1.90;;
69822;SDS011;57119;52.516;13.508;2022-07-25T02:56:11;8.47;;;2.47;;
69822;SDS011;57119;52.516;13.508;2022-07-25T02:58:37;5.63;;;2.03;;
69822;SDS011;57119;52.516;13.508;2022-07-25T03:01:02;4.93;;;2.30;;
69822;SDS011;57119;52.516;13.508;2022-07-25T03:03:27;5.87;;;2.37;;
69822;SDS011;57119;52.516;13.508;2022-07-25T03:05:53;6.30;;;2.60;;
69822;SDS011;57119;52.516;13.508;2022-07-25T03:08:18;5.60;;;2.30;;
69822;SDS011;57119;52.516;13.508;2022-07-25T03:10:43;4.17;;;1.97;;
69822;SDS011;57119;52.516;13.508;2022-07-25T03:13:09;5.75;;;2.30;;
69822;SDS011;57119;52.516;13.508;2022-07-25T03:15:34;4.90;;;1.97;;
69822;SDS011;57119;52.516;13.508;2022-07-25T03:17:59;5.47;;;2.43;;
69822;SDS011;57119;52.516;13.508;2022-07-25T03:20:25;5.17;;;2.40;;
69822;SDS011;57119;52.516;13.508;2022-07-25T03:22:50;5.47;;;2.23;;
69822;SDS011;57119;52.516;13.508;2022-07-25T03:25:16;5.97;;;2.70;;
69822;SDS011;57119;52.516;13.508;2022-07-25T03:27:41;6.07;;;2.93;;
69822;SDS011;57119;52.516;13.508;2022-07-25T03:30:06;5.70;;;2.60;;
69822;SDS011;57119;52.516;13.508;2022-07-25T03:32:32;5.03;;;2.47;;
69822;SDS011;57119;52.516;13.508;2022-07-25T03:34:58;4.40;;;2.13;;
69822;SDS011;57119;52.516;13.508;2022-07-25T03:37:23;6.13;;;2.77;;
69822;SDS011;57119;52.516;13.508;2022-07-25T03:39:48;5.87;;;2.70;;
69822;SDS011;57119;52.516;13.508;2022-07-25T03:42:14;5.20;;;2.50;;
69822;SDS011;57119;52.516;13.508;2022-07-25T03:44:39;5.37;;;2.40;;
69822;SDS011;57119;52.516;13.508;2022-07-25T03:47:04;5.43;;;2.83;;
69822;SDS011;57119;52.516;13.508;2022-07-25T03:49:31;4.50;;;2.30;;
69822;SDS011;57119;52.516;13.508;2022-07-25T03:51:56;5.53;;;2.42;;
69822;SDS011;57119;52.516;13.508;2022-07-25T03:54:22;5.53;;;2.70;;
69822;SDS011;57119;52.516;13.508;2022-07-25T03:56:48;4.87;;;2.67;;
69822;SDS011;57119;52.516;13.508;2022-07-25T03:59:15;5.07;;;2.50;;
69822;SDS011;57119;52.516;13.508;2022-07-25T04:01:42;5.97;;;2.58;;
69822;SDS011;57119;52.516;13.508;2022-07-25T04:04:09;6.50;;;2.67;;
69822;SDS011;57119;52.516;13.508;2022-07-25T04:06:35;7.57;;;2.58;;
69822;SDS011;57119;52.516;13.508;2022-07-25T04:09:01;5.83;;;2.43;;
69822;SDS011;57119;52.516;13.508;2022-07-25T04:11:28;5.45;;;2.78;;
69822;SDS011;57119;52.516;13.508;2022-07-25T04:13:54;5.57;;;2.20;;
69822;SDS011;57119;52.516;13.508;2022-07-25T04:16:20;8.45;;;2.20;;
69822;SDS011;57119;52.516;13.508;2022-07-25T04:18:46;6.23;;;2.13;;
69822;SDS011;57119;52.516;13.508;2022-07-25T04:21:11;5.07;;;2.17;;
69822;SDS011;57119;52.516;13.508;2022-07-25T04:23:37;4.87;;;2.43;;
69822;SDS011;57119;52.516;13.508;2022-07-25T04:26:02;5.00;;;2.47;;
69822;SDS011;57119;52.516;13.508;2022-07-25T04:28:28;6.10;;;2.83;;
69822;SDS011;57119;52.516;13.508;2022-07-25T04:30:54;8.67;;;2.60;;
69822;SDS011;57119;52.516;13.508;2022-07-25T04:33:19;5.63;;;2.80;;
69822;SDS011;57119;52.516;13.508;2022-07-25T04:35:45;5.40;;;2.50;;
69822;SDS011;57119;52.516;13.508;2022-07-25T04:38:11;5.18;;;2.38;;
69822;SDS011;57119;52.516;13.508;2022-07-25T04:40:37;4.83;;;2.20;;
69822;SDS011;57119;52.516;13.508;2022-07-25T04:43:03;5.38;;;2.72;;
69822;SDS011;57119;52.516;13.508;2022-07-25T04:45:28;6.40;;;2.30;;
69822;SDS011;57119;52.516;13.508;2022-07-25T04:47:54;5.00;;;2.45;;
69822;SDS011;57119;52.516;13.508;2022-07-25T04:50:19;7.33;;;2.37;;
69822;SDS011;57119;52.516;13.508;2022-07-25T04:52:45;4.97;;;2.20;;
69822;SDS011;57119;52.516;13.508;2022-07-25T04:55:10;6.63;;;2.75;;
69822;SDS011;57119;52.516;13.508;2022-07-25T04:57:36;5.30;;;2.13;;
69822;SDS011;57119;52.516;13.508;2022-07-25T05:00:05;5.45;;;2.70;;
69822;SDS011;57119;52.516;13.508;2022-07-25T05:02:32;6.32;;;2.40;;
69822;SDS011;57119;52.516;13.508;2022-07-25T05:04:58;5.23;;;2.40;;
69822;SDS011;57119;52.516;13.508;2022-07-25T05:07:24;5.78;;;2.58;;
69822;SDS011;57119;52.516;13.508;2022-07-25T05:09:49;5.57;;;2.30;;
69822;SDS011;57119;52.516;13.508;2022-07-25T05:12:14;6.50;;;2.63;;
69822;SDS011;57119;52.516;13.508;2022-07-25T05:14:40;5.20;;;2.37;;
69822;SDS011;57119;52.516;13.508;2022-07-25T05:17:05;5.33;;;2.60;;
69822;SDS011;57119;52.516;13.508;2022-07-25T05:19:30;4.55;;;2.10;;
69822;SDS011;57119;52.516;13.508;2022-07-25T05:21:58;5.80;;;2.60;;
69822;SDS011;57119;52.516;13.508;2022-07-25T05:24:23;5.80;;;2.58;;
69822;SDS011;57119;52.516;13.508;2022-07-25T05:26:49;5.73;;;2.77;;
69822;SDS011;57119;52.516;13.508;2022-07-25T05:29:14;5.93;;;2.60;;
69822;SDS011;57119;52.516;13.508;2022-07-25T05:31:40;5.43;;;2.17;;
69822;SDS011;57119;52.516;13.508;2022-07-25T05:34:05;5.88;;;2.83;;
69822;SDS011;57119;52.516;13.508;2022-07-25T05:36:31;5.13;;;2.53;;
69822;SDS011;57119;52.516;13.508;2022-07-25T05:38:57;4.53;;;2.22;;
69822;SDS011;57119;52.516;13.508;2022-07-25T05:41:22;5.40;;;2.40;;
69822;SDS011;57119;52.516;13.508;2022-07-25T05:43:47;5.20;;;2.60;;
69822;SDS011;57119;52.516;13.508;2022-07-25T05:46:13;5.30;;;2.23;;
69822;SDS011;57119;52.516;13.508;2022-07-25T05:48:39;6.93;;;2.90;;
69822;SDS011;57119;52.516;13.508;2022-07-25T05:51:05;6.80;;;2.60;;
69822;SDS011;57119;52.516;13.508;2022-07-25T05:53:31;7.30;;;2.90;;
69822;SDS011;57119;52.516;13.508;2022-07-25T05:55:56;5.17;;;2.43;;
69822;SDS011;57119;52.516;13.508;2022-07-25T05:58:22;7.77;;;2.80;;
69822;SDS011;57119;52.516;13.508;2022-07-25T06:00:48;6.03;;;2.65;;
69822;SDS011;57119;52.516;13.508;2022-07-25T06:03:15;7.75;;;2.80;;
69822;SDS011;57119;52.516;13.508;2022-07-25T06:05:41;5.90;;;2.87;;
69822;SDS011;57119;52.516;13.508;2022-07-25T06:08:07;6.07;;;2.78;;
69822;SDS011;57119;52.516;13.508;2022-07-25T06:10:32;5.50;;;2.67;;
69822;SDS011;57119;52.516;13.508;2022-07-25T06:12:57;5.67;;;2.40;;
69822;SDS011;57119;52.516;13.508;2022-07-25T06:15:23;6.27;;;3.13;;
69822;SDS011;57119;52.516;13.508;2022-07-25T06:17:48;5.90;;;2.90;;
69822;SDS011;57119;52.516;13.508;2022-07-25T06:20:14;6.03;;;2.60;;
69822;SDS011;57119;52.516;13.508;2022-07-25T06:22:39;8.25;;;2.78;;
69822;SDS011;57119;52.516;13.508;2022-07-25T06:25:04;6.23;;;2.50;;
69822;SDS011;57119;52.516;13.508;2022-07-25T06:27:30;6.67;;;2.97;;
69822;SDS011;57119;52.516;13.508;2022-07-25T06:29:56;8.52;;;3.45;;
69822;SDS011;57119;52.516;13.508;2022-07-25T06:32:21;8.30;;;3.57;;
69822;SDS011;57119;52.516;13.508;2022-07-25T06:34:46;5.23;;;2.67;;
69822;SDS011;57119;52.516;13.508;2022-07-25T06:37:12;6.70;;;3.20;;
69822;SDS011;57119;52.516;13.508;2022-07-25T06:39:37;6.17;;;3.40;;
69822;SDS011;57119;52.516;13.508;2022-07-25T06:42:03;6.27;;;3.33;;
69822;SDS011;57119;52.516;13.508;2022-07-25T06:44:32;6.03;;;3.30;;
69822;SDS011;57119;52.516;13.508;2022-07-25T06:46:58;5.78;;;3.17;;
69822;SDS011;57119;52.516;13.508;2022-07-25T06:49:25;6.82;;;3.15;;
69822;SDS011;57119;52.516;13.508;2022-07-25T06:51:51;6.13;;;2.90;;
69822;SDS011;57119;52.516;13.508;2022-07-25T06:54:16;6.67;;;3.43;;
69822;SDS011;57119;52.516;13.508;2022-07-25T06:56:42;6.25;;;3.30;;
69822;SDS011;57119;52.516;13.508;2022-07-25T06:59:08;7.47;;;3.53;;
69822;SDS011;57119;52.516;13.508;2022-07-25T07:01:33;5.87;;;3.23;;
69822;SDS011;57119;52.516;13.508;2022-07-25T07:03:58;6.10;;;3.47;;
69822;SDS011;57119;52.516;13.508;2022-07-25T07:06:24;5.93;;;3.50;;
69822;SDS011;57119;52.516;13.508;2022-07-25T07:08:49;7.20;;;3.33;;
69822;SDS011;57119;52.516;13.508;2022-07-25T07:11:14;6.73;;;3.70;;
69822;SDS011;57119;52.516;13.508;2022-07-25T07:13:40;6.85;;;3.78;;
69822;SDS011;57119;52.516;13.508;2022-07-25T07:16:06;7.27;;;4.20;;
69822;SDS011;57119;52.516;13.508;2022-07-25T07:18:32;6.72;;;4.00;;
69822;SDS011;57119;52.516;13.508;2022-07-25T07:20:57;7.50;;;3.87;;
69822;SDS011;57119;52.516;13.508;2022-07-25T07:23:22;6.40;;;3.70;;
69822;SDS011;57119;52.516;13.508;2022-07-25T07:25:48;7.35;;;4.00;;
69822;SDS011;57119;52.516;13.508;2022-07-25T07:28:13;5.83;;;3.40;;
69822;SDS011;57119;52.516;13.508;2022-07-25T07:30:39;8.57;;;3.53;;
69822;SDS011;57119;52.516;13.508;2022-07-25T07:33:05;6.78;;;3.80;;
69822;SDS011;57119;52.516;13.508;2022-07-25T07:35:30;11.17;;;4.40;;
69822;SDS011;57119;52.516;13.508;2022-07-25T07:37:55;6.77;;;4.20;;
69822;SDS011;57119;52.516;13.508;2022-07-25T07:40:22;7.18;;;4.30;;
69822;SDS011;57119;52.516;13.508;2022-07-25T07:42:48;7.38;;;4.53;;
69822;SDS011;57119;52.516;13.508;2022-07-25T07:45:21;9.40;;;4.60;;
69822;SDS011;57119;52.516;13.508;2022-07-25T07:47:50;8.03;;;4.60;;
69822;SDS011;57119;52.516;13.508;2022-07-25T07:50:17;7.40;;;4.43;;
69822;SDS011;57119;52.516;13.508;2022-07-25T07:52:44;7.20;;;4.45;;
69822;SDS011;57119;52.516;13.508;2022-07-25T07:55:10;9.43;;;4.87;;
69822;SDS011;57119;52.516;13.508;2022-07-25T07:57:54;7.90;;;4.60;;
69822;SDS011;57119;52.516;13.508;2022-07-25T08:00:20;8.98;;;5.05;;
69822;SDS011;57119;52.516;13.508;2022-07-25T08:02:48;7.10;;;4.68;;
69822;SDS011;57119;52.516;13.508;2022-07-25T08:05:22;8.82;;;5.00;;
69822;SDS011;57119;52.516;13.508;2022-07-25T08:07:50;8.00;;;5.83;;
69822;SDS011;57119;52.516;13.508;2022-07-25T08:10:20;8.00;;;5.60;;
69822;SDS011;57119;52.516;13.508;2022-07-25T08:12:46;8.65;;;4.78;;
69822;SDS011;57119;52.516;13.508;2022-07-25T08:15:12;8.27;;;5.30;;
69822;SDS011;57119;52.516;13.508;2022-07-25T08:17:37;6.77;;;4.73;;
69822;SDS011;57119;52.516;13.508;2022-07-25T08:20:03;7.87;;;5.20;;
69822;SDS011;57119;52.516;13.508;2022-07-25T08:22:42;7.53;;;4.88;;
69822;SDS011;57119;52.516;13.508;2022-07-25T08:25:09;7.60;;;6.00;;
69822;SDS011;57119;52.516;13.508;2022-07-25T08:27:37;7.67;;;5.37;;
69822;SDS011;57119;52.516;13.508;2022-07-25T08:30:04;7.30;;;5.37;;
69822;SDS011;57119;52.516;13.508;2022-07-25T08:32:30;8.57;;;5.72;;
69822;SDS011;57119;52.516;13.508;2022-07-25T08:34:56;10.37;;;4.97;;
69822;SDS011;57119;52.516;13.508;2022-07-25T08:37:21;7.50;;;5.20;;
69822;SDS011;57119;52.516;13.508;2022-07-25T08:39:48;7.95;;;5.95;;
69822;SDS011;57119;52.516;13.508;2022-07-25T08:42:14;8.57;;;6.45;;
69822;SDS011;57119;52.516;13.508;2022-07-25T08:44:41;9.50;;;6.87;;
69822;SDS011;57119;52.516;13.508;2022-07-25T08:47:08;9.30;;;6.32;;
69822;SDS011;57119;52.516;13.508;2022-07-25T08:49:34;10.82;;;6.00;;
69822;SDS011;57119;52.516;13.508;2022-07-25T08:52:01;8.23;;;5.20;;
69822;SDS011;57119;52.516;13.508;2022-07-25T08:54:27;7.30;;;5.43;;
69822;SDS011;57119;52.516;13.508;2022-07-25T08:56:52;7.93;;;6.10;;
69822;SDS011;57119;52.516;13.508;2022-07-25T08:59:18;8.77;;;6.40;;
69822;SDS011;57119;52.516;13.508;2022-07-25T09:01:43;8.30;;;6.60;;
69822;SDS011;57119;52.516;13.508;2022-07-25T09:04:09;7.87;;;6.27;;
69822;SDS011;57119;52.516;13.508;2022-07-25T09:06:34;8.43;;;6.65;;
69822;SDS011;57119;52.516;13.508;2022-07-25T09:09:00;9.33;;;6.70;;
69822;SDS011;57119;52.516;13.508;2022-07-25T09:11:29;8.02;;;6.05;;
69822;SDS011;57119;52.516;13.508;2022-07-25T09:14:07;9.18;;;6.00;;
69822;SDS011;57119;52.516;13.508;2022-07-25T09:16:38;9.63;;;6.35;;
69822;SDS011;57119;52.516;13.508;2022-07-25T09:19:08;8.45;;;7.00;;
69822;SDS011;57119;52.516;13.508;2022-07-25T09:21:34;9.43;;;7.00;;
69822;SDS011;57119;52.516;13.508;2022-07-25T09:24:07;7.93;;;6.57;;
69822;SDS011;57119;52.516;13.508;2022-07-25T09:26:50;9.40;;;7.32;;
69822;SDS011;57119;52.516;13.508;2022-07-25T09:31:56;9.25;;;7.07;;
69822;SDS011;57119;52.516;13.508;2022-07-25T09:34:36;9.45;;;7.32;;
69822;SDS011;57119;52.516;13.508;2022-07-25T09:37:06;8.47;;;7.23;;
69822;SDS011;57119;52.516;13.508;2022-07-25T09:39:38;9.27;;;6.30;;
69822;SDS011;57119;52.516;13.508;2022-07-25T09:42:14;9.93;;;7.32;;
69822;SDS011;57119;52.516;13.508;2022-07-25T09:44:43;8.88;;;7.50;;
69822;SDS011;57119;52.516;13.508;2022-07-25T09:47:09;10.18;;;7.68;;
69822;SDS011;57119;52.516;13.508;2022-07-25T09:49:38;12.48;;;8.15;;
69822;SDS011;57119;52.516;13.508;2022-07-25T09:52:05;8.15;;;7.25;;
69822;SDS011;57119;52.516;13.508;2022-07-25T09:54:30;8.70;;;7.20;;
69822;SDS011;57119;52.516;13.508;2022-07-25T09:56:56;10.00;;;7.97;;
69822;SDS011;57119;52.516;13.508;2022-07-25T09:59:22;8.77;;;7.87;;
69822;SDS011;57119;52.516;13.508;2022-07-25T10:01:50;9.03;;;7.97;;
69822;SDS011;57119;52.516;13.508;2022-07-25T10:04:27;9.27;;;8.23;;
69822;SDS011;57119;52.516;13.508;2022-07-25T10:07:18;8.88;;;7.40;;
69822;SDS011;57119;52.516;13.508;2022-07-25T10:09:49;11.00;;;8.35;;
69822;SDS011;57119;52.516;13.508;2022-07-25T10:12:19;10.90;;;7.88;;
69822;SDS011;57119;52.516;13.508;2022-07-25T10:15:05;11.02;;;8.07;;
69822;SDS011;57119;52.516;13.508;2022-07-25T10:17:33;9.70;;;8.70;;
69822;SDS011;57119;52.516;13.508;2022-07-25T10:19:59;8.68;;;7.70;;
69822;SDS011;57119;52.516;13.508;2022-07-25T10:22:37;9.07;;;7.80;;
69822;SDS011;57119;52.516;13.508;2022-07-25T10:25:11;8.98;;;7.55;;
69822;SDS011;57119;52.516;13.508;2022-07-25T10:27:45;9.95;;;8.25;;
69822;SDS011;57119;52.516;13.508;2022-07-25T10:30:19;10.10;;;8.35;;
69822;SDS011;57119;52.516;13.508;2022-07-25T10:32:57;10.05;;;8.88;;
69822;SDS011;57119;52.516;13.508;2022-07-25T10:35:25;10.73;;;8.77;;
69822;SDS011;57119;52.516;13.508;2022-07-25T10:37:53;11.65;;;8.80;;
69822;SDS011;57119;52.516;13.508;2022-07-25T10:40:33;10.50;;;9.20;;
69822;SDS011;57119;52.516;13.508;2022-07-25T10:43:11;14.00;;;9.40;;
69822;SDS011;57119;52.516;13.508;2022-07-25T10:45:39;9.70;;;8.37;;
69822;SDS011;57119;52.516;13.508;2022-07-25T10:48:27;9.90;;;8.63;;
69822;SDS011;57119;52.516;13.508;2022-07-25T10:51:11;9.90;;;8.40;;
69822;SDS011;57119;52.516;13.508;2022-07-25T10:53:44;9.90;;;8.90;;
69822;SDS011;57119;52.516;13.508;2022-07-25T10:56:18;10.00;;;8.75;;
69822;SDS011;57119;52.516;13.508;2022-07-25T11:01:25;9.88;;;8.88;;
69822;SDS011;57119;52.516;13.508;2022-07-25T11:03:55;9.93;;;8.90;;
69822;SDS011;57119;52.516;13.508;2022-07-25T11:09:00;9.93;;;8.93;;
69822;SDS011;57119;52.516;13.508;2022-07-25T11:11:32;10.07;;;9.00;;
69822;SDS011;57119;52.516;13.508;2022-07-25T11:13:59;9.95;;;8.95;;
69822;SDS011;57119;52.516;13.508;2022-07-25T11:16:25;10.48;;;9.20;;
69822;SDS011;57119;52.516;13.508;2022-07-25T11:18:51;9.63;;;8.40;;
69822;SDS011;57119;52.516;13.508;2022-07-25T11:21:18;10.47;;;9.00;;
69822;SDS011;57119;52.516;13.508;2022-07-25T11:23:48;10.68;;;9.57;;
69822;SDS011;57119;52.516;13.508;2022-07-25T11:26:14;10.02;;;9.02;;
69822;SDS011;57119;52.516;13.508;2022-07-25T11:28:44;9.30;;;8.07;;
69822;SDS011;57119;52.516;13.508;2022-07-25T11:31:14;8.70;;;6.97;;
69822;SDS011;57119;52.516;13.508;2022-07-25T11:33:41;10.13;;;8.23;;
69822;SDS011;57119;52.516;13.508;2022-07-25T11:36:11;9.87;;;7.93;;
69822;SDS011;57119;52.516;13.508;2022-07-25T11:38:37;10.53;;;9.23;;
69822;SDS011;57119;52.516;13.508;2022-07-25T11:41:04;10.02;;;9.02;;
69822;SDS011;57119;52.516;13.508;2022-07-25T11:43:30;9.43;;;8.40;;
69822;SDS011;57119;52.516;13.508;2022-07-25T11:46:00;10.77;;;7.78;;
69822;SDS011;57119;52.516;13.508;2022-07-25T11:48:34;12.53;;;9.23;;
69822;SDS011;57119;52.516;13.508;2022-07-25T11:51:10;11.70;;;8.50;;
69822;SDS011;57119;52.516;13.508;2022-07-25T11:53:38;9.95;;;8.90;;
69822;SDS011;57119;52.516;13.508;2022-07-25T11:56:40;10.95;;;7.28;;
69822;SDS011;57119;52.516;13.508;2022-07-25T11:59:02;10.30;;;8.57;;
69822;SDS011;57119;52.516;13.508;2022-07-25T12:01:38;10.47;;;8.20;;
69822;SDS011;57119;52.516;13.508;2022-07-25T12:04:09;9.68;;;7.93;;
69822;SDS011;57119;52.516;13.508;2022-07-25T12:06:42;10.00;;;9.00;;
69822;SDS011;57119;52.516;13.508;2022-07-25T12:09:13;10.52;;;9.38;;
69822;SDS011;57119;52.516;13.508;2022-07-25T12:11:43;10.23;;;9.23;;
69822;SDS011;57119;52.516;13.508;2022-07-25T12:14:08;11.13;;;9.97;;
69822;SDS011;57119;52.516;13.508;2022-07-25T12:16:34;10.02;;;8.93;;
69822;SDS011;57119;52.516;13.508;2022-07-25T12:19:00;9.75;;;7.35;;
69822;SDS011;57119;52.516;13.508;2022-07-25T12:21:26;9.17;;;7.60;;
69822;SDS011;57119;52.516;13.508;2022-07-25T12:23:52;10.30;;;9.27;;
69822;SDS011;57119;52.516;13.508;2022-07-25T12:26:17;9.77;;;8.77;;
69822;SDS011;57119;52.516;13.508;2022-07-25T12:28:43;9.27;;;7.97;;
69822;SDS011;57119;52.516;13.508;2022-07-25T12:31:08;10.03;;;9.03;;
69822;SDS011;57119;52.516;13.508;2022-07-25T12:33:34;10.23;;;8.82;;
69822;SDS011;57119;52.516;13.508;2022-07-25T12:36:00;10.90;;;9.30;;
69822;SDS011;57119;52.516;13.508;2022-07-25T12:38:26;10.10;;;8.95;;
69822;SDS011;57119;52.516;13.508;2022-07-25T12:40:51;9.17;;;7.73;;
69822;SDS011;57119;52.516;13.508;2022-07-25T12:43:17;9.93;;;8.93;;
69822;SDS011;57119;52.516;13.508;2022-07-25T12:45:42;9.97;;;8.97;;
69822;SDS011;57119;52.516;13.508;2022-07-25T12:48:08;10.52;;;9.05;;
69822;SDS011;57119;52.516;13.508;2022-07-25T12:50:34;11.80;;;10.57;;
69822;SDS011;57119;52.516;13.508;2022-07-25T12:52:59;10.65;;;9.50;;
69822;SDS011;57119;52.516;13.508;2022-07-25T12:55:25;10.73;;;9.67;;
69822;SDS011;57119;52.516;13.508;2022-07-25T12:57:51;10.07;;;9.07;;
69822;SDS011;57119;52.516;13.508;2022-07-25T13:00:18;10.03;;;8.27;;
69822;SDS011;57119;52.516;13.508;2022-07-25T13:02:44;9.95;;;8.25;;
69822;SDS011;57119;52.516;13.508;2022-07-25T13:05:10;11.23;;;10.13;;
69822;SDS011;57119;52.516;13.508;2022-07-25T13:07:36;9.70;;;8.77;;
69822;SDS011;57119;52.516;13.508;2022-07-25T13:10:02;11.03;;;8.63;;
69822;SDS011;57119;52.516;13.508;2022-07-25T13:12:29;9.75;;;8.45;;
69822;SDS011;57119;52.516;13.508;2022-07-25T13:14:55;12.70;;;9.43;;
69822;SDS011;57119;52.516;13.508;2022-07-25T13:17:20;9.27;;;8.07;;
69822;SDS011;57119;52.516;13.508;2022-07-25T13:19:46;12.23;;;9.00;;
69822;SDS011;57119;52.516;13.508;2022-07-25T13:22:11;9.77;;;8.70;;
69822;SDS011;57119;52.516;13.508;2022-07-25T13:24:37;9.88;;;8.70;;
69822;SDS011;57119;52.516;13.508;2022-07-25T13:27:03;9.27;;;7.63;;
69822;SDS011;57119;52.516;13.508;2022-07-25T13:29:29;10.10;;;8.83;;
69822;SDS011;57119;52.516;13.508;2022-07-25T13:31:55;10.32;;;8.10;;
69822;SDS011;57119;52.516;13.508;2022-07-25T13:34:20;9.33;;;7.53;;
69822;SDS011;57119;52.516;13.508;2022-07-25T13:36:45;11.33;;;8.80;;
69822;SDS011;57119;52.516;13.508;2022-07-25T13:39:11;10.52;;;7.65;;
69822;SDS011;57119;52.516;13.508;2022-07-25T13:41:37;9.13;;;7.43;;
69822;SDS011;57119;52.516;13.508;2022-07-25T13:44:02;10.93;;;7.77;;
69822;SDS011;57119;52.516;13.508;2022-07-25T13:46:28;12.47;;;8.03;;
69822;SDS011;57119;52.516;13.508;2022-07-25T13:48:53;10.63;;;7.33;;
69822;SDS011;57119;52.516;13.508;2022-07-25T13:51:19;10.43;;;7.75;;
69822;SDS011;57119;52.516;13.508;2022-07-25T13:53:45;10.30;;;7.43;;
69822;SDS011;57119;52.516;13.508;2022-07-25T13:56:10;10.97;;;9.27;;
69822;SDS011;57119;52.516;13.508;2022-07-25T13:58:37;10.85;;;8.45;;
69822;SDS011;57119;52.516;13.508;2022-07-25T14:01:02;9.67;;;8.07;;
69822;SDS011;57119;52.516;13.508;2022-07-25T14:03:27;10.27;;;8.67;;
69822;SDS011;57119;52.516;13.508;2022-07-25T14:05:53;9.77;;;8.75;;
69822;SDS011;57119;52.516;13.508;2022-07-25T14:08:19;9.77;;;8.77;;
69822;SDS011;57119;52.516;13.508;2022-07-25T14:10:44;8.77;;;7.13;;
69822;SDS011;57119;52.516;13.508;2022-07-25T14:13:10;10.85;;;8.60;;
69822;SDS011;57119;52.516;13.508;2022-07-25T14:15:37;9.53;;;8.07;;
69822;SDS011;57119;52.516;13.508;2022-07-25T14:18:02;11.70;;;8.23;;
69822;SDS011;57119;52.516;13.508;2022-07-25T14:20:27;10.77;;;9.67;;
69822;SDS011;57119;52.516;13.508;2022-07-25T14:22:53;10.87;;;9.77;;
69822;SDS011;57119;52.516;13.508;2022-07-25T14:25:18;10.50;;;8.90;;
69822;SDS011;57119;52.516;13.508;2022-07-25T14:27:43;9.10;;;7.53;;
69822;SDS011;57119;52.516;13.508;2022-07-25T14:30:09;9.30;;;7.67;;
69822;SDS011;57119;52.516;13.508;2022-07-25T14:32:35;8.53;;;7.30;;
69822;SDS011;57119;52.516;13.508;2022-07-25T14:35:01;10.37;;;8.67;;
69822;SDS011;57119;52.516;13.508;2022-07-25T14:37:26;11.30;;;7.43;;